createdAt,value
2018-03-01T00:01:58.267Z,55.50
2018-03-01T00:04:24.672Z,55.80
2018-03-01T00:06:51.838Z,55.80
2018-03-01T00:09:18.292Z,55.70
2018-03-01T00:11:45.459Z,55.80
2018-03-01T00:14:11.867Z,55.80
2018-03-01T00:16:38.288Z,55.60
2018-03-01T00:19:05.433Z,55.90
2018-03-01T00:21:31.867Z,55.80
2018-03-01T00:23:58.386Z,55.80
2018-03-01T00:26:25.597Z,56.00
2018-03-01T00:28:52.023Z,56.00
2018-03-01T00:31:18.473Z,56.10
2018-03-01T00:33:45.641Z,56.20
2018-03-01T00:36:12.786Z,56.00
2018-03-01T00:38:39.965Z,56.00
2018-03-01T00:41:06.398Z,55.90
2018-03-01T00:43:36.146Z,56.20
2018-03-01T00:46:03.326Z,55.80
2018-03-01T00:48:30.482Z,56.70
2018-03-01T00:50:56.934Z,56.10
2018-03-01T00:53:23.352Z,56.20
2018-03-01T00:55:49.775Z,56.10
2018-03-01T00:58:17.578Z,56.00
2018-03-01T01:00:44.006Z,56.00
2018-03-01T01:03:11.302Z,56.00
2018-03-01T01:05:38.537Z,56.20
2018-03-01T01:08:05.030Z,56.20
2018-03-01T01:10:32.177Z,56.50
2018-03-01T01:12:59.338Z,56.40
2018-03-01T01:15:25.739Z,56.40
2018-03-01T01:17:52.142Z,56.30
2018-03-01T01:20:18.559Z,56.80
2018-03-01T01:22:44.967Z,56.60
2018-03-01T01:25:12.141Z,56.80
2018-03-01T01:27:38.610Z,56.80
2018-03-01T01:30:07.488Z,56.90
2018-03-01T01:32:33.892Z,56.90
2018-03-01T01:35:00.288Z,56.90
2018-03-01T01:37:26.702Z,56.70
2018-03-01T01:39:53.825Z,56.70
2018-03-01T01:42:20.226Z,56.70
2018-03-01T01:44:47.391Z,56.70
2018-03-01T01:47:14.555Z,57.70
2018-03-01T01:49:41.685Z,57.70
2018-03-01T01:52:08.109Z,57.70
2018-03-01T01:54:34.534Z,58.10
2018-03-01T01:57:01.689Z,58.30
2018-03-01T01:59:28.104Z,58.20
2018-03-01T02:01:54.572Z,58.40
2018-03-01T02:04:20.965Z,58.50
2018-03-01T02:06:47.359Z,58.60
2018-03-01T02:09:16.676Z,58.60
2018-03-01T02:11:43.106Z,58.50
2018-03-01T02:14:10.274Z,58.60
2018-03-01T02:16:37.423Z,58.70
2018-03-01T02:19:03.831Z,58.60
2018-03-01T02:21:30.280Z,58.60
2018-03-01T02:23:56.679Z,58.80
2018-03-01T02:26:23.087Z,58.80
2018-03-01T02:28:50.243Z,59.10
2018-03-01T02:31:17.392Z,59.20
2018-03-01T02:33:43.885Z,59.20
2018-03-01T02:36:11.106Z,59.40
2018-03-01T02:38:37.514Z,59.40
2018-03-01T02:41:03.942Z,59.50
2018-03-01T02:43:31.243Z,59.60
2018-03-01T02:45:58.421Z,59.70
2018-03-01T02:48:25.594Z,59.80
2018-03-01T02:50:52.047Z,59.80
2018-03-01T02:53:18.524Z,60.70
2018-03-01T02:55:48.284Z,60.00
2018-03-01T02:58:14.794Z,60.10
2018-03-01T03:00:41.211Z,60.10
2018-03-01T03:03:07.702Z,60.20
2018-03-01T03:05:34.873Z,60.60
2018-03-01T03:08:02.023Z,60.80
2018-03-01T03:10:28.496Z,60.80
2018-03-01T03:12:55.660Z,61.00
2018-03-01T03:15:22.821Z,60.90
2018-03-01T03:17:49.218Z,60.90
2018-03-01T03:20:17.628Z,61.10
2018-03-01T03:22:44.991Z,61.20
2018-03-01T03:25:11.533Z,61.40
2018-03-01T03:27:38.810Z,61.40
2018-03-01T03:30:05.960Z,62.10
2018-03-01T03:32:32.343Z,61.60
2018-03-01T03:34:58.893Z,61.70
2018-03-01T03:37:26.024Z,62.40
2018-03-01T03:39:52.442Z,61.90
2018-03-01T03:42:18.860Z,62.00
2018-03-01T03:44:46.038Z,62.60
2018-03-01T03:47:13.277Z,62.20
2018-03-01T03:49:39.670Z,62.20
2018-03-01T03:52:06.852Z,62.50
2018-03-01T03:54:33.260Z,62.50
2018-03-01T03:56:59.867Z,62.60
2018-03-01T03:59:26.997Z,62.80
2018-03-01T04:01:54.139Z,62.80
2018-03-01T04:04:20.575Z,62.90
2018-03-01T04:06:46.970Z,63.00
2018-03-01T04:09:13.432Z,63.30
2018-03-01T04:11:39.930Z,63.30
2018-03-01T04:14:07.084Z,63.50
2018-03-01T04:16:33.476Z,63.50
2018-03-01T04:18:59.922Z,63.50
2018-03-01T04:21:26.326Z,63.60
2018-03-01T04:23:52.756Z,63.70
2018-03-01T04:26:19.163Z,63.70
2018-03-01T04:28:45.578Z,63.70
2018-03-01T04:31:12.478Z,63.70
2018-03-01T04:33:38.938Z,63.90
2018-03-01T04:36:05.413Z,64.30
2018-03-01T04:38:32.582Z,64.00
2018-03-01T04:40:59.728Z,64.00
2018-03-01T04:43:26.138Z,63.90
2018-03-01T04:45:52.557Z,63.80
2018-03-01T04:48:19.716Z,64.00
2018-03-01T04:50:46.144Z,64.00
2018-03-01T04:53:12.573Z,64.00
2018-03-01T04:55:38.986Z,64.10
2018-03-01T04:58:06.132Z,64.30
2018-03-01T05:00:32.634Z,64.10
2018-03-01T05:02:59.802Z,64.20
2018-03-01T05:05:26.965Z,64.40
2018-03-01T05:07:54.130Z,64.40
2018-03-01T05:10:20.612Z,64.40
2018-03-01T05:12:47.826Z,64.40
2018-03-01T05:15:14.224Z,64.40
2018-03-01T05:17:41.365Z,64.60
2018-03-01T05:20:07.800Z,64.60
2018-03-01T05:22:34.240Z,64.60
2018-03-01T05:25:00.655Z,64.70
2018-03-01T05:27:27.831Z,64.70
2018-03-01T05:29:54.251Z,64.70
2018-03-01T05:32:20.964Z,64.80
2018-03-01T05:34:48.135Z,65.00
2018-03-01T05:37:15.269Z,65.10
2018-03-01T05:39:42.480Z,64.90
2018-03-01T05:42:09.638Z,64.60
2018-03-01T05:44:36.810Z,64.80
2018-03-01T05:47:03.972Z,64.90
2018-03-01T05:49:30.457Z,64.80
2018-03-01T05:51:56.889Z,65.10
2018-03-01T05:54:23.981Z,64.90
2018-03-01T05:56:51.153Z,64.90
2018-03-01T05:59:18.424Z,65.00
2018-03-01T06:01:45.613Z,65.10
2018-03-01T06:04:12.052Z,65.10
2018-03-01T06:06:39.225Z,64.90
2018-03-01T06:09:06.381Z,64.90
2018-03-01T06:11:32.855Z,65.00
2018-03-01T06:14:00.133Z,65.00
2018-03-01T06:16:26.573Z,65.00
2018-03-01T06:18:53.720Z,64.80
2018-03-01T06:21:20.146Z,64.80
2018-03-01T06:23:46.576Z,64.80
2018-03-01T06:26:12.971Z,64.60
2018-03-01T06:28:39.371Z,64.60
2018-03-01T06:31:06.527Z,64.40
2018-03-01T06:33:33.006Z,64.40
2018-03-01T06:36:00.159Z,64.50
2018-03-01T06:38:26.581Z,64.40
2018-03-01T06:40:53.016Z,64.10
2018-03-01T06:43:19.437Z,63.80
2018-03-01T06:45:50.198Z,63.60
2018-03-01T06:48:17.595Z,63.50
2018-03-01T06:50:44.084Z,63.50
2018-03-01T06:53:10.536Z,63.50
2018-03-01T06:55:36.961Z,63.40
2018-03-01T06:58:03.439Z,63.10
2018-03-01T07:00:29.881Z,62.70
2018-03-01T07:02:56.325Z,62.40
2018-03-01T07:05:22.792Z,61.90
2018-03-01T07:07:49.326Z,61.70
2018-03-01T07:10:15.762Z,61.60
2018-03-01T07:12:42.953Z,61.60
2018-03-01T07:15:10.139Z,61.40
2018-03-01T07:17:36.525Z,61.40
2018-03-01T07:20:03.000Z,62.70
2018-03-01T07:22:30.192Z,66.80
2018-03-01T07:24:56.608Z,66.80
2018-03-01T07:27:23.122Z,59.70
2018-03-01T07:29:51.572Z,53.90
2018-03-01T07:32:18.030Z,49.60
2018-03-01T07:34:44.436Z,44.90
2018-03-01T07:37:11.600Z,38.90
2018-03-01T07:39:38.747Z,38.40
2018-03-01T07:42:05.160Z,38.30
2018-03-01T07:44:31.594Z,37.20
2018-03-01T07:46:58.988Z,34.60
2018-03-01T07:49:25.424Z,34.60
2018-03-01T07:51:51.854Z,34.80
2018-03-01T07:54:18.317Z,31.70
2018-03-01T07:56:45.538Z,31.90
2018-03-01T07:59:11.943Z,31.30
2018-03-01T08:01:38.371Z,30.80
2018-03-01T08:04:05.411Z,32.00
2018-03-01T08:06:31.948Z,30.90
2018-03-01T08:08:59.690Z,28.90
2018-03-01T08:11:26.091Z,28.90
2018-03-01T08:13:52.470Z,29.00
2018-03-01T08:16:18.915Z,28.20
2018-03-01T08:18:45.301Z,25.60
2018-03-01T08:21:11.809Z,26.70
2018-03-01T08:23:38.982Z,26.20
2018-03-01T08:26:05.468Z,26.20
2018-03-01T08:28:31.865Z,25.60
2018-03-01T08:30:58.354Z,25.70
2018-03-01T08:33:24.786Z,25.30
2018-03-01T08:35:51.943Z,22.80
2018-03-01T08:38:19.589Z,23.10
2018-03-01T08:40:46.117Z,24.50
2018-03-01T08:43:13.897Z,22.90
2018-03-01T08:45:41.047Z,23.10
2018-03-01T08:48:08.213Z,22.90
2018-03-01T08:50:34.658Z,22.90
2018-03-01T08:53:01.103Z,22.40
2018-03-01T08:55:27.570Z,20.70
2018-03-01T08:57:53.999Z,20.80
2018-03-01T09:00:20.403Z,21.20
2018-03-01T09:02:46.828Z,21.30
2018-03-01T09:05:13.279Z,21.30
2018-03-01T09:07:39.713Z,20.80
2018-03-01T09:10:06.252Z,20.80
2018-03-01T09:12:33.400Z,20.00
2018-03-01T09:14:59.828Z,20.00
2018-03-01T09:17:26.280Z,19.80
2018-03-01T09:19:52.678Z,20.20
2018-03-01T09:22:19.863Z,19.90
2018-03-01T09:24:47.099Z,19.90
2018-03-01T09:27:13.511Z,19.90
2018-03-01T09:29:39.946Z,20.70
2018-03-01T09:32:07.096Z,22.90
2018-03-01T09:34:34.232Z,23.80
2018-03-01T09:37:00.616Z,23.80
2018-03-01T09:39:27.141Z,25.00
2018-03-01T09:41:53.568Z,25.90
2018-03-01T09:44:19.997Z,26.70
2018-03-01T09:46:46.407Z,27.30
2018-03-01T09:49:12.870Z,27.90
2018-03-01T09:51:39.384Z,28.20
2018-03-01T09:54:06.558Z,28.90
2018-03-01T09:56:34.219Z,29.00
2018-03-01T09:59:01.424Z,29.30
2018-03-01T10:01:27.817Z,29.30
2018-03-01T10:03:54.303Z,29.70
2018-03-01T10:06:21.294Z,30.00
2018-03-01T10:08:47.729Z,30.20
2018-03-01T10:11:14.128Z,30.70
2018-03-01T10:13:40.544Z,31.10
2018-03-01T10:16:07.677Z,31.70
2018-03-01T10:18:34.184Z,31.60
2018-03-01T10:21:01.374Z,32.20
2018-03-01T10:23:27.791Z,32.20
2018-03-01T10:25:54.269Z,32.10
2018-03-01T10:28:21.696Z,32.00
2018-03-01T10:30:48.903Z,32.20
2018-03-01T10:33:16.114Z,32.60
2018-03-01T10:35:42.525Z,32.50
2018-03-01T10:38:08.926Z,32.90
2018-03-01T10:40:35.423Z,33.30
2018-03-01T10:43:01.856Z,33.60
2018-03-01T10:45:28.287Z,33.40
2018-03-01T10:47:54.721Z,33.30
2018-03-01T10:50:21.894Z,33.10
2018-03-01T10:52:49.212Z,32.90
2018-03-01T10:55:15.633Z,32.90
2018-03-01T10:57:42.789Z,32.70
2018-03-01T11:00:10.079Z,32.80
2018-03-01T11:02:37.249Z,32.70
2018-03-01T11:05:04.399Z,32.40
2018-03-01T11:07:31.344Z,33.00
2018-03-01T11:09:57.848Z,32.40
2018-03-01T11:12:25.132Z,32.30
2018-03-01T11:14:51.580Z,32.30
2018-03-01T11:17:18.032Z,32.30
2018-03-01T11:19:45.266Z,32.70
2018-03-01T11:22:11.671Z,32.70
2018-03-01T11:24:38.137Z,32.70
2018-03-01T11:27:04.553Z,32.60
2018-03-01T11:29:30.963Z,32.20
2018-03-01T11:31:57.382Z,32.00
2018-03-01T11:34:24.560Z,32.00
2018-03-01T11:36:51.728Z,32.20
2018-03-01T11:39:19.427Z,32.10
2018-03-01T11:41:46.522Z,32.10
2018-03-01T11:44:12.924Z,32.00
2018-03-01T11:46:40.067Z,31.80
2018-03-01T11:49:06.492Z,31.80
2018-03-01T11:51:32.893Z,32.10
2018-03-01T11:53:59.312Z,32.30
2018-03-01T11:56:25.741Z,32.50
2018-03-01T11:58:52.192Z,32.70
2018-03-01T12:01:18.592Z,32.40
2018-03-01T12:03:45.036Z,32.10
2018-03-01T12:06:12.110Z,32.10
2018-03-01T12:08:38.549Z,32.20
2018-03-01T12:11:05.862Z,32.30
2018-03-01T12:13:32.298Z,32.40
2018-03-01T12:15:58.723Z,32.50
2018-03-01T12:18:25.159Z,32.30
2018-03-01T12:20:55.948Z,32.50
2018-03-01T12:23:22.373Z,32.40
2018-03-01T12:25:48.998Z,32.50
2018-03-01T12:28:16.225Z,32.20
2018-03-01T12:30:42.769Z,32.20
2018-03-01T12:33:10.294Z,32.00
2018-03-01T12:35:36.803Z,32.00
2018-03-01T12:38:07.051Z,32.40
2018-03-01T12:40:34.413Z,32.40
2018-03-01T12:43:01.608Z,32.30
2018-03-01T12:45:28.152Z,32.20
2018-03-01T12:47:54.614Z,32.30
2018-03-01T12:50:21.226Z,32.10
2018-03-01T12:52:47.721Z,31.60
2018-03-01T12:55:15.089Z,31.90
2018-03-01T12:57:42.477Z,32.00
2018-03-01T13:00:09.040Z,31.90
2018-03-01T13:02:35.595Z,32.20
2018-03-01T13:05:02.975Z,32.30
2018-03-01T13:07:30.345Z,32.30
2018-03-01T13:09:57.112Z,32.10
2018-03-01T13:12:23.976Z,32.20
2018-03-01T13:14:50.533Z,32.10
2018-03-01T13:17:18.647Z,32.50
2018-03-01T13:19:45.133Z,32.40
2018-03-01T13:22:11.706Z,32.50
2018-03-01T13:24:38.179Z,32.30
2018-03-01T13:27:04.690Z,32.30
2018-03-01T13:29:31.216Z,31.90
2018-03-01T13:32:16.410Z,31.70
2018-03-01T13:34:57.760Z,31.90
2018-03-01T13:37:25.029Z,32.10
2018-03-01T13:39:52.229Z,32.10
2018-03-01T13:42:19.699Z,32.10
2018-03-01T13:44:46.977Z,31.90
2018-03-01T13:47:13.455Z,31.90
2018-03-01T13:49:39.990Z,31.90
2018-03-01T13:52:07.182Z,32.10
2018-03-01T13:54:33.662Z,32.00
2018-03-01T13:57:00.114Z,32.10
2018-03-01T13:59:26.589Z,32.00
2018-03-01T14:01:53.063Z,32.10
2018-03-01T14:04:19.651Z,31.50
2018-03-01T14:06:52.917Z,31.70
2018-03-01T14:09:21.160Z,31.70
2018-03-01T14:11:47.720Z,31.90
2018-03-01T14:14:15.082Z,31.80
2018-03-01T14:16:42.338Z,31.80
2018-03-01T14:19:23.751Z,31.80
2018-03-01T14:21:52.046Z,31.90
2018-03-01T14:24:22.179Z,31.90
2018-03-01T14:26:50.317Z,31.90
2018-03-01T14:29:22.785Z,31.90
2018-03-01T14:31:49.314Z,31.90
2018-03-01T14:34:16.518Z,32.20
2018-03-01T14:36:43.058Z,32.10
2018-03-01T14:39:10.283Z,32.10
2018-03-01T14:41:36.856Z,32.00
2018-03-01T14:44:03.329Z,32.00
2018-03-01T14:46:30.587Z,32.10
2018-03-01T14:48:57.211Z,32.10
2018-03-01T14:51:23.712Z,32.00
2018-03-01T14:53:50.297Z,32.00
2018-03-01T14:56:16.862Z,32.10
2018-03-01T14:58:43.429Z,31.90
2018-03-01T15:01:09.973Z,32.00
2018-03-01T15:03:37.153Z,32.20
2018-03-01T15:06:04.031Z,32.20
2018-03-01T15:08:30.483Z,32.20
2018-03-01T15:10:57.126Z,32.20
2018-03-01T15:13:24.196Z,32.00
2018-03-01T15:15:51.264Z,31.90
2018-03-01T15:18:17.827Z,31.90
2018-03-01T15:20:44.314Z,32.20
2018-03-01T15:23:10.858Z,32.40
2018-03-01T15:25:37.327Z,32.50
2018-03-01T15:28:03.882Z,32.60
2018-03-01T15:30:31.640Z,32.90
2018-03-01T15:32:59.020Z,32.80
2018-03-01T15:35:25.880Z,32.80
2018-03-01T15:37:52.357Z,32.90
2018-03-01T15:40:19.000Z,33.10
2018-03-01T15:42:46.275Z,33.10
2018-03-01T15:45:12.817Z,33.30
2018-03-01T15:47:40.745Z,33.40
2018-03-01T15:50:07.301Z,33.40
2018-03-01T15:52:34.556Z,33.40
2018-03-01T15:55:01.928Z,34.00
2018-03-01T15:57:28.799Z,33.50
2018-03-01T15:59:56.194Z,33.60
2018-03-01T16:02:23.144Z,33.70
2018-03-01T16:04:49.799Z,33.80
2018-03-01T16:07:17.381Z,33.90
2018-03-01T16:09:45.374Z,33.80
2018-03-01T16:12:13.709Z,34.00
2018-03-01T16:14:43.226Z,34.00
2018-03-01T16:17:12.315Z,34.30
2018-03-01T16:19:38.942Z,34.20
2018-03-01T16:22:06.244Z,34.20
2018-03-01T16:24:34.599Z,34.30
2018-03-01T16:27:02.737Z,34.50
2018-03-01T16:29:30.214Z,34.50
2018-03-01T16:31:57.492Z,34.60
2018-03-01T16:34:25.327Z,34.70
2018-03-01T16:36:53.780Z,34.90
2018-03-01T16:39:21.816Z,34.80
2018-03-01T16:41:49.350Z,35.00
2018-03-01T16:44:17.246Z,35.10
2018-03-01T16:46:43.769Z,35.10
2018-03-01T16:49:10.558Z,35.30
2018-03-01T16:51:37.117Z,36.00
2018-03-01T16:54:04.908Z,35.50
2018-03-01T16:56:31.674Z,35.60
2018-03-01T16:58:58.342Z,35.50
2018-03-01T17:01:27.071Z,35.70
2018-03-01T17:03:54.717Z,35.90
2018-03-01T17:06:21.887Z,36.00
2018-03-01T17:08:48.549Z,36.00
2018-03-01T17:11:15.312Z,36.00
2018-03-01T17:13:41.979Z,36.30
2018-03-01T17:16:08.467Z,36.50
2018-03-01T17:18:35.095Z,36.60
2018-03-01T17:21:03.778Z,36.60
2018-03-01T17:23:34.140Z,36.50
2018-03-01T17:26:02.028Z,36.60
2018-03-01T17:28:29.282Z,36.70
2018-03-01T17:30:57.702Z,37.00
2018-03-01T17:33:24.325Z,36.90
2018-03-01T17:35:52.255Z,36.80
2018-03-01T17:38:19.222Z,36.90
2018-03-01T17:40:48.150Z,37.00
2018-03-01T17:43:15.566Z,37.20
2018-03-01T17:45:43.598Z,37.20
2018-03-01T17:48:10.206Z,37.20
2018-03-01T17:50:38.351Z,37.30
2018-03-01T17:53:04.873Z,37.30
2018-03-01T17:55:31.355Z,37.50
2018-03-01T17:57:58.743Z,37.60
2018-03-01T18:00:25.468Z,37.60
2018-03-01T18:02:51.920Z,37.70
2018-03-01T18:05:18.422Z,37.70
2018-03-01T18:07:44.926Z,37.80
2018-03-01T18:10:13.374Z,37.90
2018-03-01T18:12:41.329Z,37.90
2018-03-01T18:15:08.928Z,37.90
2018-03-01T18:17:36.325Z,38.50
2018-03-01T18:20:03.517Z,38.10
2018-03-01T18:22:30.036Z,38.10
2018-03-01T18:24:56.546Z,38.20
2018-03-01T18:27:23.051Z,38.20
2018-03-01T18:29:51.366Z,38.50
2018-03-01T18:32:18.605Z,38.60
2018-03-01T18:34:45.049Z,38.60
2018-03-01T18:37:11.543Z,38.60
2018-03-01T18:39:39.341Z,38.80
2018-03-01T18:42:06.104Z,38.80
2018-03-01T18:44:35.568Z,38.90
2018-03-01T18:47:05.078Z,38.80
2018-03-01T18:49:40.710Z,38.80
2018-03-01T18:52:11.226Z,38.90
2018-03-01T18:54:38.121Z,39.10
2018-03-01T18:57:04.784Z,39.20
2018-03-01T18:59:31.648Z,39.20
2018-03-01T19:01:58.103Z,39.20
2018-03-01T19:04:25.461Z,39.40
2018-03-01T19:06:52.755Z,39.40
2018-03-01T19:09:20.442Z,39.50
2018-03-01T19:11:49.042Z,39.50
2018-03-01T19:14:17.643Z,39.50
2018-03-01T19:16:46.477Z,39.60
2018-03-01T19:19:17.412Z,39.70
2018-03-01T19:21:46.127Z,39.80
2018-03-01T19:24:13.092Z,39.90
2018-03-01T19:26:39.577Z,40.00
2018-03-01T19:29:06.078Z,40.10
2018-03-01T19:31:32.492Z,40.20
2018-03-01T19:33:58.962Z,40.40
2018-03-01T19:36:25.470Z,40.50
2018-03-01T19:38:52.681Z,40.80
2018-03-01T19:41:19.261Z,40.80
2018-03-01T19:43:47.293Z,41.20
2018-03-01T19:46:14.567Z,41.20
2018-03-01T19:48:41.842Z,41.30
2018-03-01T19:51:08.501Z,41.30
2018-03-01T19:53:34.925Z,41.60
2018-03-01T19:56:01.422Z,41.70
2018-03-01T19:58:27.850Z,41.80
2018-03-01T20:00:55.177Z,41.80
2018-03-01T20:03:21.913Z,41.70
2018-03-01T20:05:49.193Z,42.00
2018-03-01T20:08:15.743Z,42.00
2018-03-01T20:10:42.300Z,42.00
2018-03-01T20:13:09.510Z,42.20
2018-03-01T20:15:36.610Z,42.20
2018-03-01T20:18:04.534Z,42.90
2018-03-01T20:20:53.869Z,42.90
2018-03-01T20:23:21.939Z,42.80
2018-03-01T20:25:48.761Z,42.70
2018-03-01T20:28:15.621Z,42.70
2018-03-01T20:36:51.106Z,43.40
2018-03-01T20:39:18.764Z,43.30
2018-03-01T20:41:46.544Z,43.60
2018-03-01T20:44:13.932Z,43.90
2018-03-01T20:49:56.344Z,44.20
2018-03-01T20:52:23.922Z,44.50
2018-03-01T20:54:50.479Z,44.40
2018-03-01T20:57:17.602Z,44.80
2018-03-01T20:59:45.098Z,44.80
2018-03-01T21:02:23.227Z,45.00
2018-03-01T21:04:50.519Z,45.30
2018-03-01T21:07:17.710Z,45.30
2018-03-01T21:09:52.878Z,45.70
2018-03-01T21:12:20.165Z,45.50
2018-03-01T21:14:46.582Z,45.60
2018-03-01T21:17:34.737Z,45.70
2018-03-01T21:20:01.187Z,46.10
2018-03-01T21:22:27.833Z,46.60
2018-03-01T21:24:54.207Z,47.00
2018-03-01T21:27:20.644Z,46.80
2018-03-01T21:30:01.907Z,46.80
2018-03-01T21:32:29.086Z,47.20
2018-03-01T21:34:56.261Z,46.80
2018-03-01T21:37:23.412Z,47.10
2018-03-01T21:42:42.665Z,47.00
2018-03-01T21:45:09.172Z,47.00
2018-03-01T21:47:36.336Z,47.40
2018-03-01T21:50:02.797Z,47.40
2018-03-01T21:52:30.744Z,47.50
2018-03-01T21:54:57.153Z,47.50
2018-03-01T21:57:24.320Z,47.80
2018-03-01T21:59:50.798Z,47.70
2018-03-01T22:02:21.426Z,48.00
2018-03-01T22:04:47.978Z,47.90
2018-03-01T22:07:15.169Z,48.10
2018-03-01T22:09:42.355Z,48.10
2018-03-01T22:12:26.356Z,48.10
2018-03-01T22:14:52.779Z,48.50
2018-03-01T22:17:19.188Z,48.60
2018-03-01T22:19:45.614Z,48.70
2018-03-01T22:22:12.035Z,48.60
2018-03-01T22:27:32.524Z,48.60
2018-03-01T22:29:59.007Z,48.60
2018-03-01T22:32:25.465Z,48.60
2018-03-01T22:34:51.887Z,48.80
2018-03-01T22:37:19.082Z,49.40
2018-03-01T22:39:46.270Z,49.40
2018-03-01T22:42:12.716Z,49.30
2018-03-01T22:44:39.853Z,49.30
2018-03-01T22:47:17.943Z,49.30
2018-03-01T22:49:44.457Z,49.40
2018-03-01T22:52:11.595Z,49.60
2018-03-01T22:54:39.517Z,49.60
2018-03-01T22:57:10.721Z,49.60
2018-03-01T22:59:37.238Z,49.60
2018-03-01T23:02:04.402Z,50.00
2018-03-01T23:04:30.820Z,49.90
2018-03-01T23:12:44.211Z,49.60
2018-03-01T23:15:10.695Z,49.60
2018-03-01T23:17:37.250Z,49.70
2018-03-01T23:20:04.436Z,49.80
2018-03-01T23:25:24.408Z,49.90
2018-03-01T23:27:50.841Z,49.90
2018-03-01T23:30:17.264Z,50.00
2018-03-01T23:32:43.655Z,50.10
2018-03-01T23:35:10.849Z,50.00
2018-03-01T23:37:37.281Z,50.00
2018-03-01T23:40:03.760Z,50.10
2018-03-01T23:42:38.134Z,50.00
2018-03-01T23:45:04.571Z,50.20
2018-03-01T23:47:31.848Z,51.10
2018-03-01T23:49:59.021Z,50.90
2018-03-01T23:52:29.492Z,51.00
2018-03-01T23:54:55.901Z,50.90
2018-03-01T23:57:22.307Z,51.30
